sensor_id;sensor_type;location;lat;lon;timestamp;P1;durP1;ratioP1;P2;durP2;ratioP2
11996;SDS011;6058;48.704;9.474;2023-08-20T00:00:55;7.70;;;5.45;;
11996;SDS011;6058;48.704;9.474;2023-08-20T00:03:23;7.47;;;5.47;;
11996;SDS011;6058;48.704;9.474;2023-08-20T00:05:50;8.23;;;4.97;;
11996;SDS011;6058;48.704;9.474;2023-08-20T00:08:18;5.82;;;5.22;;
11996;SDS011;6058;48.704;9.474;2023-08-20T00:10:45;6.22;;;5.53;;
11996;SDS011;6058;48.704;9.474;2023-08-20T00:13:14;9.15;;;5.45;;
11996;SDS011;6058;48.704;9.474;2023-08-20T00:15:41;5.28;;;4.82;;
11996;SDS011;6058;48.704;9.474;2023-08-20T00:18:08;8.70;;;5.03;;
11996;SDS011;6058;48.704;9.474;2023-08-20T00:20:36;10.02;;;5.57;;
11996;SDS011;6058;48.704;9.474;2023-08-20T00:23:05;6.38;;;5.25;;
11996;SDS011;6058;48.704;9.474;2023-08-20T00:25:33;6.75;;;4.63;;
11996;SDS011;6058;48.704;9.474;2023-08-20T00:28:00;5.43;;;4.65;;
11996;SDS011;6058;48.704;9.474;2023-08-20T00:30:29;7.70;;;5.10;;
11996;SDS011;6058;48.704;9.474;2023-08-20T00:32:56;5.97;;;5.22;;
11996;SDS011;6058;48.704;9.474;2023-08-20T00:35:23;7.13;;;5.63;;
11996;SDS011;6058;48.704;9.474;2023-08-20T00:37:50;10.00;;;4.90;;
11996;SDS011;6058;48.704;9.474;2023-08-20T00:40:17;5.70;;;4.68;;
11996;SDS011;6058;48.704;9.474;2023-08-20T00:42:44;5.95;;;5.20;;
11996;SDS011;6058;48.704;9.474;2023-08-20T00:45:11;6.32;;;5.13;;
11996;SDS011;6058;48.704;9.474;2023-08-20T00:47:40;6.13;;;5.18;;
11996;SDS011;6058;48.704;9.474;2023-08-20T00:50:07;6.15;;;5.30;;
11996;SDS011;6058;48.704;9.474;2023-08-20T00:52:35;6.43;;;4.85;;
11996;SDS011;6058;48.704;9.474;2023-08-20T00:55:04;6.20;;;5.00;;
11996;SDS011;6058;48.704;9.474;2023-08-20T00:57:32;5.03;;;4.50;;
11996;SDS011;6058;48.704;9.474;2023-08-20T00:59:59;6.35;;;5.18;;
11996;SDS011;6058;48.704;9.474;2023-08-20T01:02:30;6.15;;;5.43;;
11996;SDS011;6058;48.704;9.474;2023-08-20T01:04:58;6.68;;;5.88;;
11996;SDS011;6058;48.704;9.474;2023-08-20T01:07:27;6.68;;;5.70;;
11996;SDS011;6058;48.704;9.474;2023-08-20T01:09:57;7.75;;;5.22;;
11996;SDS011;6058;48.704;9.474;2023-08-20T01:12:30;5.93;;;5.28;;
11996;SDS011;6058;48.704;9.474;2023-08-20T01:14:58;5.95;;;5.35;;
11996;SDS011;6058;48.704;9.474;2023-08-20T01:17:25;7.15;;;5.65;;
11996;SDS011;6058;48.704;9.474;2023-08-20T01:19:52;5.00;;;4.60;;
11996;SDS011;6058;48.704;9.474;2023-08-20T01:22:30;8.50;;;5.47;;
11996;SDS011;6058;48.704;9.474;2023-08-20T01:25:04;6.55;;;5.57;;
11996;SDS011;6058;48.704;9.474;2023-08-20T01:27:39;8.38;;;5.20;;
11996;SDS011;6058;48.704;9.474;2023-08-20T01:30:11;5.43;;;4.93;;
11996;SDS011;6058;48.704;9.474;2023-08-20T01:32:39;7.70;;;5.30;;
11996;SDS011;6058;48.704;9.474;2023-08-20T01:35:07;5.88;;;5.25;;
11996;SDS011;6058;48.704;9.474;2023-08-20T01:37:35;8.57;;;5.53;;
11996;SDS011;6058;48.704;9.474;2023-08-20T01:40:02;6.55;;;5.38;;
11996;SDS011;6058;48.704;9.474;2023-08-20T01:42:32;6.10;;;5.43;;
11996;SDS011;6058;48.704;9.474;2023-08-20T01:44:59;7.90;;;5.28;;
11996;SDS011;6058;48.704;9.474;2023-08-20T01:47:27;6.28;;;5.20;;
11996;SDS011;6058;48.704;9.474;2023-08-20T01:49:54;8.07;;;5.75;;
11996;SDS011;6058;48.704;9.474;2023-08-20T01:52:22;5.55;;;5.00;;
11996;SDS011;6058;48.704;9.474;2023-08-20T01:54:49;5.45;;;4.90;;
11996;SDS011;6058;48.704;9.474;2023-08-20T01:57:16;6.63;;;5.35;;
11996;SDS011;6058;48.704;9.474;2023-08-20T01:59:43;11.63;;;5.47;;
11996;SDS011;6058;48.704;9.474;2023-08-20T02:04:44;6.45;;;5.28;;
11996;SDS011;6058;48.704;9.474;2023-08-20T02:07:11;6.07;;;5.47;;
11996;SDS011;6058;48.704;9.474;2023-08-20T02:09:38;5.78;;;4.93;;
11996;SDS011;6058;48.704;9.474;2023-08-20T02:12:05;5.13;;;4.63;;
11996;SDS011;6058;48.704;9.474;2023-08-20T02:14:32;6.43;;;5.60;;
11996;SDS011;6058;48.704;9.474;2023-08-20T02:17:00;6.97;;;5.40;;
11996;SDS011;6058;48.704;9.474;2023-08-20T02:19:27;6.85;;;5.97;;
11996;SDS011;6058;48.704;9.474;2023-08-20T02:21:55;9.20;;;5.47;;
11996;SDS011;6058;48.704;9.474;2023-08-20T02:24:23;6.10;;;5.43;;
11996;SDS011;6058;48.704;9.474;2023-08-20T02:26:50;6.22;;;4.90;;
11996;SDS011;6058;48.704;9.474;2023-08-20T02:29:17;6.13;;;5.30;;
11996;SDS011;6058;48.704;9.474;2023-08-20T02:31:44;7.40;;;5.88;;
11996;SDS011;6058;48.704;9.474;2023-08-20T02:34:11;6.50;;;5.28;;
11996;SDS011;6058;48.704;9.474;2023-08-20T02:36:38;7.45;;;5.72;;
11996;SDS011;6058;48.704;9.474;2023-08-20T02:39:07;8.05;;;5.75;;
11996;SDS011;6058;48.704;9.474;2023-08-20T02:41:34;5.57;;;5.07;;
11996;SDS011;6058;48.704;9.474;2023-08-20T02:44:01;5.63;;;5.10;;
11996;SDS011;6058;48.704;9.474;2023-08-20T02:46:29;7.07;;;5.38;;
11996;SDS011;6058;48.704;9.474;2023-08-20T02:48:56;6.40;;;5.30;;
11996;SDS011;6058;48.704;9.474;2023-08-20T02:51:23;6.88;;;5.45;;
11996;SDS011;6058;48.704;9.474;2023-08-20T02:53:50;6.88;;;5.70;;
11996;SDS011;6058;48.704;9.474;2023-08-20T02:56:19;6.03;;;5.30;;
11996;SDS011;6058;48.704;9.474;2023-08-20T02:58:46;5.95;;;5.45;;
11996;SDS011;6058;48.704;9.474;2023-08-20T03:01:20;5.20;;;4.70;;
11996;SDS011;6058;48.704;9.474;2023-08-20T03:03:47;6.35;;;5.60;;
11996;SDS011;6058;48.704;9.474;2023-08-20T03:06:14;6.05;;;5.45;;
11996;SDS011;6058;48.704;9.474;2023-08-20T03:08:41;7.47;;;5.20;;
11996;SDS011;6058;48.704;9.474;2023-08-20T03:11:08;7.05;;;5.82;;
11996;SDS011;6058;48.704;9.474;2023-08-20T03:13:37;8.52;;;5.88;;
11996;SDS011;6058;48.704;9.474;2023-08-20T03:16:04;7.85;;;6.28;;
11996;SDS011;6058;48.704;9.474;2023-08-20T03:18:31;5.90;;;5.30;;
11996;SDS011;6058;48.704;9.474;2023-08-20T03:20:58;6.53;;;5.80;;
11996;SDS011;6058;48.704;9.474;2023-08-20T03:23:25;7.65;;;6.05;;
11996;SDS011;6058;48.704;9.474;2023-08-20T03:25:52;7.65;;;6.15;;
11996;SDS011;6058;48.704;9.474;2023-08-20T03:28:21;6.68;;;6.00;;
11996;SDS011;6058;48.704;9.474;2023-08-20T03:30:49;7.40;;;5.90;;
11996;SDS011;6058;48.704;9.474;2023-08-20T03:33:16;5.47;;;5.05;;
11996;SDS011;6058;48.704;9.474;2023-08-20T03:35:43;5.65;;;5.10;;
11996;SDS011;6058;48.704;9.474;2023-08-20T03:38:10;5.50;;;5.00;;
11996;SDS011;6058;48.704;9.474;2023-08-20T03:40:37;7.88;;;5.60;;
11996;SDS011;6058;48.704;9.474;2023-08-20T03:43:04;5.53;;;4.90;;
11996;SDS011;6058;48.704;9.474;2023-08-20T03:45:32;6.57;;;5.50;;
11996;SDS011;6058;48.704;9.474;2023-08-20T03:48:00;5.90;;;5.28;;
11996;SDS011;6058;48.704;9.474;2023-08-20T03:50:27;5.78;;;5.00;;
11996;SDS011;6058;48.704;9.474;2023-08-20T03:52:54;7.40;;;5.45;;
11996;SDS011;6058;48.704;9.474;2023-08-20T03:55:22;5.65;;;5.15;;
11996;SDS011;6058;48.704;9.474;2023-08-20T03:57:49;5.47;;;4.97;;
11996;SDS011;6058;48.704;9.474;2023-08-20T04:00:16;7.38;;;5.55;;
11996;SDS011;6058;48.704;9.474;2023-08-20T04:02:43;5.90;;;4.80;;
11996;SDS011;6058;48.704;9.474;2023-08-20T04:05:12;7.85;;;5.80;;
11996;SDS011;6058;48.704;9.474;2023-08-20T04:07:39;5.60;;;5.10;;
11996;SDS011;6058;48.704;9.474;2023-08-20T04:10:07;6.30;;;5.65;;
11996;SDS011;6058;48.704;9.474;2023-08-20T04:12:35;5.72;;;5.15;;
11996;SDS011;6058;48.704;9.474;2023-08-20T04:15:03;5.38;;;4.97;;
11996;SDS011;6058;48.704;9.474;2023-08-20T04:17:30;7.93;;;5.60;;
11996;SDS011;6058;48.704;9.474;2023-08-20T04:19:57;6.28;;;5.43;;
11996;SDS011;6058;48.704;9.474;2023-08-20T04:22:26;6.13;;;5.53;;
11996;SDS011;6058;48.704;9.474;2023-08-20T04:24:55;6.60;;;5.15;;
11996;SDS011;6058;48.704;9.474;2023-08-20T04:27:22;6.15;;;5.60;;
11996;SDS011;6058;48.704;9.474;2023-08-20T04:29:49;5.63;;;5.15;;
11996;SDS011;6058;48.704;9.474;2023-08-20T04:32:16;6.72;;;5.72;;
11996;SDS011;6058;48.704;9.474;2023-08-20T04:34:44;5.45;;;5.03;;
11996;SDS011;6058;48.704;9.474;2023-08-20T04:37:11;7.82;;;5.07;;
11996;SDS011;6058;48.704;9.474;2023-08-20T04:39:39;6.00;;;5.50;;
11996;SDS011;6058;48.704;9.474;2023-08-20T04:42:06;7.63;;;5.30;;
11996;SDS011;6058;48.704;9.474;2023-08-20T04:44:33;5.95;;;5.35;;
11996;SDS011;6058;48.704;9.474;2023-08-20T04:47:01;6.40;;;5.80;;
11996;SDS011;6058;48.704;9.474;2023-08-20T04:49:28;5.97;;;5.43;;
11996;SDS011;6058;48.704;9.474;2023-08-20T04:51:55;6.00;;;5.50;;
11996;SDS011;6058;48.704;9.474;2023-08-20T04:54:22;8.48;;;5.40;;
11996;SDS011;6058;48.704;9.474;2023-08-20T04:56:51;6.38;;;5.68;;
11996;SDS011;6058;48.704;9.474;2023-08-20T04:59:18;6.57;;;5.25;;
11996;SDS011;6058;48.704;9.474;2023-08-20T05:01:45;10.98;;;6.25;;
11996;SDS011;6058;48.704;9.474;2023-08-20T05:04:12;6.07;;;5.47;;
11996;SDS011;6058;48.704;9.474;2023-08-20T05:06:39;7.35;;;5.75;;
11996;SDS011;6058;48.704;9.474;2023-08-20T05:09:06;6.28;;;5.28;;
11996;SDS011;6058;48.704;9.474;2023-08-20T05:11:33;5.75;;;5.25;;
11996;SDS011;6058;48.704;9.474;2023-08-20T05:14:02;5.18;;;4.78;;
11996;SDS011;6058;48.704;9.474;2023-08-20T05:16:29;6.82;;;6.20;;
11996;SDS011;6058;48.704;9.474;2023-08-20T05:18:56;6.00;;;5.35;;
11996;SDS011;6058;48.704;9.474;2023-08-20T05:21:23;6.55;;;5.80;;
11996;SDS011;6058;48.704;9.474;2023-08-20T05:23:50;6.10;;;5.50;;
11996;SDS011;6058;48.704;9.474;2023-08-20T05:26:17;5.50;;;5.00;;
11996;SDS011;6058;48.704;9.474;2023-08-20T05:28:44;6.80;;;5.82;;
11996;SDS011;6058;48.704;9.474;2023-08-20T05:31:13;7.60;;;5.78;;
11996;SDS011;6058;48.704;9.474;2023-08-20T05:33:40;6.72;;;6.13;;
11996;SDS011;6058;48.704;9.474;2023-08-20T05:36:07;6.82;;;6.13;;
11996;SDS011;6058;48.704;9.474;2023-08-20T05:38:34;7.18;;;5.75;;
11996;SDS011;6058;48.704;9.474;2023-08-20T05:41:01;6.50;;;5.90;;
11996;SDS011;6058;48.704;9.474;2023-08-20T05:43:28;6.43;;;5.47;;
11996;SDS011;6058;48.704;9.474;2023-08-20T05:45:56;7.03;;;5.93;;
11996;SDS011;6058;48.704;9.474;2023-08-20T05:48:24;6.43;;;5.82;;
11996;SDS011;6058;48.704;9.474;2023-08-20T05:50:51;6.95;;;6.25;;
11996;SDS011;6058;48.704;9.474;2023-08-20T05:53:18;7.40;;;6.03;;
11996;SDS011;6058;48.704;9.474;2023-08-20T05:55:45;8.60;;;6.22;;
11996;SDS011;6058;48.704;9.474;2023-08-20T05:58:12;8.80;;;6.40;;
11996;SDS011;6058;48.704;9.474;2023-08-20T06:00:40;9.48;;;6.60;;
11996;SDS011;6058;48.704;9.474;2023-08-20T06:03:07;7.13;;;6.30;;
11996;SDS011;6058;48.704;9.474;2023-08-20T06:05:35;7.25;;;6.50;;
11996;SDS011;6058;48.704;9.474;2023-08-20T06:08:03;6.75;;;6.07;;
11996;SDS011;6058;48.704;9.474;2023-08-20T06:10:31;8.43;;;6.80;;
11996;SDS011;6058;48.704;9.474;2023-08-20T06:12:58;7.20;;;6.40;;
11996;SDS011;6058;48.704;9.474;2023-08-20T06:15:25;7.68;;;6.05;;
11996;SDS011;6058;48.704;9.474;2023-08-20T06:17:52;7.90;;;6.47;;
11996;SDS011;6058;48.704;9.474;2023-08-20T06:20:19;7.07;;;6.47;;
11996;SDS011;6058;48.704;9.474;2023-08-20T06:22:48;10.30;;;7.28;;
11996;SDS011;6058;48.704;9.474;2023-08-20T06:25:15;9.63;;;7.07;;
11996;SDS011;6058;48.704;9.474;2023-08-20T06:27:42;11.55;;;7.10;;
11996;SDS011;6058;48.704;9.474;2023-08-20T06:30:09;8.40;;;7.22;;
11996;SDS011;6058;48.704;9.474;2023-08-20T06:32:36;7.25;;;6.18;;
11996;SDS011;6058;48.704;9.474;2023-08-20T06:35:04;7.90;;;7.10;;
11996;SDS011;6058;48.704;9.474;2023-08-20T06:37:31;8.95;;;8.02;;
11996;SDS011;6058;48.704;9.474;2023-08-20T06:40:00;8.30;;;7.18;;
11996;SDS011;6058;48.704;9.474;2023-08-20T06:42:27;8.38;;;7.13;;
11996;SDS011;6058;48.704;9.474;2023-08-20T06:44:54;8.68;;;7.43;;
11996;SDS011;6058;48.704;9.474;2023-08-20T06:47:21;9.48;;;7.47;;
11996;SDS011;6058;48.704;9.474;2023-08-20T06:49:49;9.57;;;7.68;;
11996;SDS011;6058;48.704;9.474;2023-08-20T06:52:16;10.80;;;7.40;;
11996;SDS011;6058;48.704;9.474;2023-08-20T06:54:43;8.65;;;7.85;;
11996;SDS011;6058;48.704;9.474;2023-08-20T06:57:12;8.40;;;7.07;;
11996;SDS011;6058;48.704;9.474;2023-08-20T06:59:39;8.13;;;7.32;;
11996;SDS011;6058;48.704;9.474;2023-08-20T07:02:07;9.80;;;7.63;;
11996;SDS011;6058;48.704;9.474;2023-08-20T07:04:35;9.70;;;8.27;;
11996;SDS011;6058;48.704;9.474;2023-08-20T07:07:02;8.40;;;7.57;;
11996;SDS011;6058;48.704;9.474;2023-08-20T07:09:29;7.53;;;6.63;;
11996;SDS011;6058;48.704;9.474;2023-08-20T07:11:57;12.23;;;7.95;;
11996;SDS011;6058;48.704;9.474;2023-08-20T07:14:25;8.32;;;7.53;;
11996;SDS011;6058;48.704;9.474;2023-08-20T07:16:52;9.85;;;7.88;;
11996;SDS011;6058;48.704;9.474;2023-08-20T07:19:19;8.43;;;7.55;;
11996;SDS011;6058;48.704;9.474;2023-08-20T07:21:47;8.52;;;7.70;;
11996;SDS011;6058;48.704;9.474;2023-08-20T07:24:14;12.55;;;7.40;;
11996;SDS011;6058;48.704;9.474;2023-08-20T07:26:41;10.18;;;7.50;;
11996;SDS011;6058;48.704;9.474;2023-08-20T07:29:09;11.35;;;7.50;;
11996;SDS011;6058;48.704;9.474;2023-08-20T07:31:37;9.20;;;7.38;;
11996;SDS011;6058;48.704;9.474;2023-08-20T07:34:04;8.80;;;7.35;;
11996;SDS011;6058;48.704;9.474;2023-08-20T07:36:31;9.80;;;7.53;;
11996;SDS011;6058;48.704;9.474;2023-08-20T07:38:59;7.80;;;7.03;;
11996;SDS011;6058;48.704;9.474;2023-08-20T07:41:26;7.43;;;6.50;;
11996;SDS011;6058;48.704;9.474;2023-08-20T07:43:53;11.60;;;7.55;;
11996;SDS011;6058;48.704;9.474;2023-08-20T07:46:20;8.27;;;6.25;;
11996;SDS011;6058;48.704;9.474;2023-08-20T07:48:49;9.18;;;6.40;;
11996;SDS011;6058;48.704;9.474;2023-08-20T07:51:16;9.27;;;6.85;;
11996;SDS011;6058;48.704;9.474;2023-08-20T07:53:43;8.05;;;6.90;;
11996;SDS011;6058;48.704;9.474;2023-08-20T07:56:10;7.60;;;6.50;;
11996;SDS011;6058;48.704;9.474;2023-08-20T07:58:37;7.88;;;7.10;;
11996;SDS011;6058;48.704;9.474;2023-08-20T08:01:04;8.65;;;6.70;;
11996;SDS011;6058;48.704;9.474;2023-08-20T08:03:31;7.85;;;7.07;;
11996;SDS011;6058;48.704;9.474;2023-08-20T08:06:00;8.73;;;6.93;;
11996;SDS011;6058;48.704;9.474;2023-08-20T08:08:27;7.35;;;6.30;;
11996;SDS011;6058;48.704;9.474;2023-08-20T08:10:54;7.75;;;7.00;;
11996;SDS011;6058;48.704;9.474;2023-08-20T08:13:22;8.20;;;6.65;;
11996;SDS011;6058;48.704;9.474;2023-08-20T08:15:49;9.48;;;7.00;;
11996;SDS011;6058;48.704;9.474;2023-08-20T08:18:17;10.10;;;7.00;;
11996;SDS011;6058;48.704;9.474;2023-08-20T08:20:44;9.48;;;7.05;;
11996;SDS011;6058;48.704;9.474;2023-08-20T08:23:13;10.45;;;6.78;;
11996;SDS011;6058;48.704;9.474;2023-08-20T08:25:40;7.65;;;6.95;;
11996;SDS011;6058;48.704;9.474;2023-08-20T08:28:07;8.48;;;7.25;;
11996;SDS011;6058;48.704;9.474;2023-08-20T08:30:34;7.63;;;6.68;;
11996;SDS011;6058;48.704;9.474;2023-08-20T08:33:01;8.10;;;6.75;;
11996;SDS011;6058;48.704;9.474;2023-08-20T08:35:28;11.18;;;7.18;;
11996;SDS011;6058;48.704;9.474;2023-08-20T08:37:55;8.80;;;7.88;;
11996;SDS011;6058;48.704;9.474;2023-08-20T08:40:25;11.20;;;7.25;;
11996;SDS011;6058;48.704;9.474;2023-08-20T08:47:58;8.40;;;7.05;;
11996;SDS011;6058;48.704;9.474;2023-08-20T08:50:26;8.90;;;7.18;;
11996;SDS011;6058;48.704;9.474;2023-08-20T08:52:53;9.90;;;7.07;;
11996;SDS011;6058;48.704;9.474;2023-08-20T08:55:20;12.05;;;7.13;;
11996;SDS011;6058;48.704;9.474;2023-08-20T08:57:49;7.72;;;7.03;;
11996;SDS011;6058;48.704;9.474;2023-08-20T09:00:16;7.32;;;6.63;;
11996;SDS011;6058;48.704;9.474;2023-08-20T09:02:43;7.82;;;7.07;;
11996;SDS011;6058;48.704;9.474;2023-08-20T09:05:12;7.50;;;6.80;;
11996;SDS011;6058;48.704;9.474;2023-08-20T09:07:40;7.60;;;6.22;;
11996;SDS011;6058;48.704;9.474;2023-08-20T09:10:08;7.93;;;7.13;;
11996;SDS011;6058;48.704;9.474;2023-08-20T09:12:35;13.70;;;7.43;;
11996;SDS011;6058;48.704;9.474;2023-08-20T09:15:05;8.45;;;7.55;;
11996;SDS011;6058;48.704;9.474;2023-08-20T09:17:36;7.60;;;6.90;;
11996;SDS011;6058;48.704;9.474;2023-08-20T09:20:03;8.60;;;7.07;;
11996;SDS011;6058;48.704;9.474;2023-08-20T09:22:31;7.45;;;6.68;;
11996;SDS011;6058;48.704;9.474;2023-08-20T09:24:58;7.72;;;7.03;;
11996;SDS011;6058;48.704;9.474;2023-08-20T09:27:25;11.57;;;6.63;;
11996;SDS011;6058;48.704;9.474;2023-08-20T09:29:53;7.40;;;6.60;;
11996;SDS011;6058;48.704;9.474;2023-08-20T09:32:22;7.05;;;6.35;;
11996;SDS011;6058;48.704;9.474;2023-08-20T09:34:50;8.75;;;7.10;;
11996;SDS011;6058;48.704;9.474;2023-08-20T09:37:18;8.65;;;6.97;;
11996;SDS011;6058;48.704;9.474;2023-08-20T09:39:46;9.45;;;6.50;;
11996;SDS011;6058;48.704;9.474;2023-08-20T09:42:13;8.77;;;6.68;;
11996;SDS011;6058;48.704;9.474;2023-08-20T09:44:41;7.78;;;6.88;;
11996;SDS011;6058;48.704;9.474;2023-08-20T09:47:09;8.05;;;6.13;;
11996;SDS011;6058;48.704;9.474;2023-08-20T09:49:38;7.63;;;5.93;;
11996;SDS011;6058;48.704;9.474;2023-08-20T09:52:05;8.20;;;7.50;;
11996;SDS011;6058;48.704;9.474;2023-08-20T09:54:39;7.97;;;6.00;;
11996;SDS011;6058;48.704;9.474;2023-08-20T09:57:11;9.43;;;6.28;;
11996;SDS011;6058;48.704;9.474;2023-08-20T09:59:39;7.40;;;6.63;;
11996;SDS011;6058;48.704;9.474;2023-08-20T10:02:08;7.38;;;6.68;;
11996;SDS011;6058;48.704;9.474;2023-08-20T10:04:38;9.23;;;6.38;;
11996;SDS011;6058;48.704;9.474;2023-08-20T10:07:05;13.18;;;6.38;;
11996;SDS011;6058;48.704;9.474;2023-08-20T10:09:33;7.00;;;6.30;;
11996;SDS011;6058;48.704;9.474;2023-08-20T10:12:00;9.18;;;6.65;;
11996;SDS011;6058;48.704;9.474;2023-08-20T10:14:28;7.35;;;5.65;;
11996;SDS011;6058;48.704;9.474;2023-08-20T10:16:55;7.25;;;6.20;;
11996;SDS011;6058;48.704;9.474;2023-08-20T10:19:23;7.07;;;6.00;;
11996;SDS011;6058;48.704;9.474;2023-08-20T10:21:53;9.35;;;6.00;;
11996;SDS011;6058;48.704;9.474;2023-08-20T10:24:20;6.63;;;6.00;;
11996;SDS011;6058;48.704;9.474;2023-08-20T10:27:02;6.28;;;5.70;;
11996;SDS011;6058;48.704;9.474;2023-08-20T10:29:37;9.98;;;6.30;;
11996;SDS011;6058;48.704;9.474;2023-08-20T10:32:05;8.27;;;6.00;;
11996;SDS011;6058;48.704;9.474;2023-08-20T10:34:33;9.57;;;6.05;;
11996;SDS011;6058;48.704;9.474;2023-08-20T10:37:02;8.90;;;6.18;;
11996;SDS011;6058;48.704;9.474;2023-08-20T10:39:30;7.20;;;5.93;;
11996;SDS011;6058;48.704;9.474;2023-08-20T10:42:09;6.20;;;5.63;;
11996;SDS011;6058;48.704;9.474;2023-08-20T10:47:23;7.75;;;6.38;;
11996;SDS011;6058;48.704;9.474;2023-08-20T10:49:50;8.30;;;6.32;;
11996;SDS011;6058;48.704;9.474;2023-08-20T10:52:19;6.80;;;5.85;;
11996;SDS011;6058;48.704;9.474;2023-08-20T10:54:49;7.20;;;5.97;;
11996;SDS011;6058;48.704;9.474;2023-08-20T10:57:16;8.48;;;6.30;;
11996;SDS011;6058;48.704;9.474;2023-08-20T10:59:51;7.20;;;6.28;;
11996;SDS011;6058;48.704;9.474;2023-08-20T11:02:23;9.70;;;5.63;;
11996;SDS011;6058;48.704;9.474;2023-08-20T11:04:50;8.40;;;6.18;;
11996;SDS011;6058;48.704;9.474;2023-08-20T11:07:19;7.78;;;6.10;;
11996;SDS011;6058;48.704;9.474;2023-08-20T11:09:46;9.07;;;5.68;;
11996;SDS011;6058;48.704;9.474;2023-08-20T11:12:14;6.78;;;5.93;;
11996;SDS011;6058;48.704;9.474;2023-08-20T11:14:42;6.45;;;5.80;;
11996;SDS011;6058;48.704;9.474;2023-08-20T11:17:09;8.07;;;5.72;;
11996;SDS011;6058;48.704;9.474;2023-08-20T11:19:36;8.50;;;5.70;;
11996;SDS011;6058;48.704;9.474;2023-08-20T11:22:03;7.13;;;5.43;;
11996;SDS011;6058;48.704;9.474;2023-08-20T11:24:32;10.18;;;6.28;;
11996;SDS011;6058;48.704;9.474;2023-08-20T11:26:59;9.85;;;6.25;;
11996;SDS011;6058;48.704;9.474;2023-08-20T11:29:26;6.95;;;5.97;;
11996;SDS011;6058;48.704;9.474;2023-08-20T11:31:55;9.68;;;5.93;;
11996;SDS011;6058;48.704;9.474;2023-08-20T11:34:22;12.50;;;6.10;;
11996;SDS011;6058;48.704;9.474;2023-08-20T11:36:49;6.85;;;6.13;;
11996;SDS011;6058;48.704;9.474;2023-08-20T11:39:17;7.10;;;5.43;;
11996;SDS011;6058;48.704;9.474;2023-08-20T11:41:45;6.68;;;5.97;;
11996;SDS011;6058;48.704;9.474;2023-08-20T11:44:18;7.13;;;5.30;;
11996;SDS011;6058;48.704;9.474;2023-08-20T11:46:46;7.97;;;5.70;;
11996;SDS011;6058;48.704;9.474;2023-08-20T11:49:13;6.68;;;5.75;;
11996;SDS011;6058;48.704;9.474;2023-08-20T11:51:42;6.88;;;5.70;;
11996;SDS011;6058;48.704;9.474;2023-08-20T11:54:10;11.05;;;5.95;;
11996;SDS011;6058;48.704;9.474;2023-08-20T11:56:43;6.35;;;5.75;;
11996;SDS011;6058;48.704;9.474;2023-08-20T11:59:12;7.93;;;5.78;;
11996;SDS011;6058;48.704;9.474;2023-08-20T12:01:40;7.88;;;6.22;;
11996;SDS011;6058;48.704;9.474;2023-08-20T12:04:08;6.82;;;6.07;;
11996;SDS011;6058;48.704;9.474;2023-08-20T12:06:36;7.80;;;6.10;;
11996;SDS011;6058;48.704;9.474;2023-08-20T12:09:18;7.75;;;5.78;;
11996;SDS011;6058;48.704;9.474;2023-08-20T12:11:48;6.68;;;5.35;;
11996;SDS011;6058;48.704;9.474;2023-08-20T12:14:17;6.40;;;5.80;;
11996;SDS011;6058;48.704;9.474;2023-08-20T12:16:44;7.53;;;5.93;;
11996;SDS011;6058;48.704;9.474;2023-08-20T12:19:12;6.55;;;5.40;;
11996;SDS011;6058;48.704;9.474;2023-08-20T12:21:39;8.50;;;5.80;;
11996;SDS011;6058;48.704;9.474;2023-08-20T12:24:08;8.73;;;5.55;;
11996;SDS011;6058;48.704;9.474;2023-08-20T12:26:35;5.35;;;4.85;;
11996;SDS011;6058;48.704;9.474;2023-08-20T12:29:03;6.72;;;5.30;;
11996;SDS011;6058;48.704;9.474;2023-08-20T12:31:31;8.35;;;5.28;;
11996;SDS011;6058;48.704;9.474;2023-08-20T12:33:59;7.50;;;5.53;;
11996;SDS011;6058;48.704;9.474;2023-08-20T12:36:26;8.65;;;6.00;;
11996;SDS011;6058;48.704;9.474;2023-08-20T12:38:53;8.30;;;5.47;;
11996;SDS011;6058;48.704;9.474;2023-08-20T12:41:21;9.57;;;6.32;;
11996;SDS011;6058;48.704;9.474;2023-08-20T12:43:48;11.98;;;5.65;;
11996;SDS011;6058;48.704;9.474;2023-08-20T12:46:15;6.70;;;5.78;;
11996;SDS011;6058;48.704;9.474;2023-08-20T12:48:44;8.10;;;5.80;;
11996;SDS011;6058;48.704;9.474;2023-08-20T12:51:11;7.20;;;6.18;;
11996;SDS011;6058;48.704;9.474;2023-08-20T12:53:38;6.38;;;5.10;;
11996;SDS011;6058;48.704;9.474;2023-08-20T12:56:06;6.30;;;5.65;;
11996;SDS011;6058;48.704;9.474;2023-08-20T12:58:33;7.22;;;5.85;;
11996;SDS011;6058;48.704;9.474;2023-08-20T13:01:00;7.35;;;5.90;;
11996;SDS011;6058;48.704;9.474;2023-08-20T13:03:28;11.23;;;5.85;;
11996;SDS011;6058;48.704;9.474;2023-08-20T13:05:56;7.97;;;5.93;;
11996;SDS011;6058;48.704;9.474;2023-08-20T13:08:24;7.35;;;5.88;;
11996;SDS011;6058;48.704;9.474;2023-08-20T13:10:52;7.80;;;6.15;;
11996;SDS011;6058;48.704;9.474;2023-08-20T13:13:20;7.80;;;5.40;;
11996;SDS011;6058;48.704;9.474;2023-08-20T13:15:47;6.80;;;5.78;;
11996;SDS011;6058;48.704;9.474;2023-08-20T13:18:15;6.80;;;5.38;;
11996;SDS011;6058;48.704;9.474;2023-08-20T13:20:42;6.35;;;5.70;;
11996;SDS011;6058;48.704;9.474;2023-08-20T13:23:11;5.85;;;5.03;;
11996;SDS011;6058;48.704;9.474;2023-08-20T13:25:38;9.90;;;5.68;;
11996;SDS011;6058;48.704;9.474;2023-08-20T13:28:05;5.90;;;5.32;;
11996;SDS011;6058;48.704;9.474;2023-08-20T13:30:33;7.65;;;5.25;;
11996;SDS011;6058;48.704;9.474;2023-08-20T13:33:00;8.23;;;5.30;;
11996;SDS011;6058;48.704;9.474;2023-08-20T13:35:27;10.27;;;5.40;;
11996;SDS011;6058;48.704;9.474;2023-08-20T13:37:54;7.97;;;5.03;;
11996;SDS011;6058;48.704;9.474;2023-08-20T13:40:23;11.18;;;5.72;;
11996;SDS011;6058;48.704;9.474;2023-08-20T13:42:50;8.48;;;6.00;;
11996;SDS011;6058;48.704;9.474;2023-08-20T13:45:17;5.50;;;4.97;;
11996;SDS011;6058;48.704;9.474;2023-08-20T13:47:44;6.32;;;5.00;;
11996;SDS011;6058;48.704;9.474;2023-08-20T13:50:11;8.90;;;5.90;;
11996;SDS011;6058;48.704;9.474;2023-08-20T13:52:38;6.82;;;5.60;;
11996;SDS011;6058;48.704;9.474;2023-08-20T13:55:06;6.47;;;5.20;;
11996;SDS011;6058;48.704;9.474;2023-08-20T13:57:34;8.80;;;5.05;;
11996;SDS011;6058;48.704;9.474;2023-08-20T14:00:02;6.55;;;5.10;;
11996;SDS011;6058;48.704;9.474;2023-08-20T14:02:32;7.13;;;5.03;;
11996;SDS011;6058;48.704;9.474;2023-08-20T14:05:00;5.40;;;4.90;;
11996;SDS011;6058;48.704;9.474;2023-08-20T14:07:28;9.07;;;5.22;;
11996;SDS011;6058;48.704;9.474;2023-08-20T14:09:55;5.07;;;4.57;;
11996;SDS011;6058;48.704;9.474;2023-08-20T14:12:22;8.05;;;4.45;;
11996;SDS011;6058;48.704;9.474;2023-08-20T14:14:59;8.98;;;4.80;;
11996;SDS011;6058;48.704;9.474;2023-08-20T14:17:27;6.15;;;5.10;;
11996;SDS011;6058;48.704;9.474;2023-08-20T14:19:55;5.38;;;4.90;;
11996;SDS011;6058;48.704;9.474;2023-08-20T14:22:22;5.30;;;4.90;;
11996;SDS011;6058;48.704;9.474;2023-08-20T14:24:50;7.68;;;5.47;;
11996;SDS011;6058;48.704;9.474;2023-08-20T14:27:17;5.50;;;5.00;;
11996;SDS011;6058;48.704;9.474;2023-08-20T14:29:45;7.18;;;5.13;;
11996;SDS011;6058;48.704;9.474;2023-08-20T14:32:13;7.90;;;5.13;;
11996;SDS011;6058;48.704;9.474;2023-08-20T14:34:41;6.13;;;5.13;;
11996;SDS011;6058;48.704;9.474;2023-08-20T14:37:08;5.13;;;4.72;;
11996;SDS011;6058;48.704;9.474;2023-08-20T14:39:38;9.95;;;4.93;;
11996;SDS011;6058;48.704;9.474;2023-08-20T14:42:05;7.38;;;6.07;;
11996;SDS011;6058;48.704;9.474;2023-08-20T14:44:32;6.18;;;5.00;;
11996;SDS011;6058;48.704;9.474;2023-08-20T14:46:59;5.35;;;4.85;;
11996;SDS011;6058;48.704;9.474;2023-08-20T14:49:28;5.28;;;4.60;;
11996;SDS011;6058;48.704;9.474;2023-08-20T14:51:55;6.50;;;5.00;;
11996;SDS011;6058;48.704;9.474;2023-08-20T14:54:22;7.00;;;4.68;;
11996;SDS011;6058;48.704;9.474;2023-08-20T14:56:49;5.57;;;4.80;;
11996;SDS011;6058;48.704;9.474;2023-08-20T14:59:16;6.65;;;5.07;;
11996;SDS011;6058;48.704;9.474;2023-08-20T15:01:43;5.35;;;4.85;;
11996;SDS011;6058;48.704;9.474;2023-08-20T15:04:11;5.03;;;4.55;;
11996;SDS011;6058;48.704;9.474;2023-08-20T15:06:39;5.57;;;4.68;;
11996;SDS011;6058;48.704;9.474;2023-08-20T15:09:06;7.68;;;5.28;;
11996;SDS011;6058;48.704;9.474;2023-08-20T15:11:40;5.85;;;4.80;;
11996;SDS011;6058;48.704;9.474;2023-08-20T15:14:07;9.60;;;5.07;;